Time;durP1;ratioP1;P1;durP2;ratioP2;P2;SDS_P1;SDS_P2;PMS_P1;PMS_P2;Temp;Humidity;BMP_temperature;BMP_pressure;BME280_temperature;BME280_humidity;BME280_pressure;Samples;Min_cycle;Max_cycle;Signal;HPM_P1;HPM_P2
2022/03/24 00:01:27;;;;;;;63.93;39.00;;;5.70;69.70;;;;;;5059806;28;20207;-92
2022/03/24 00:03:53;;;;;;;60.47;40.70;;;5.60;69.70;;;;;;5059501;28;20210;-93
2022/03/24 00:06:19;;;;;;;68.13;42.83;;;5.60;69.80;;;;;;5060586;28;20170;-92
2022/03/24 00:08:45;;;;;;;59.60;40.70;;;5.50;69.80;;;;;;5059367;28;20183;-92
2022/03/24 00:11:11;;;;;;;63.20;41.97;;;5.50;69.90;;;;;;5059420;28;20214;-93
2022/03/24 00:13:36;;;;;;;64.00;41.23;;;5.50;69.90;;;;;;5059645;28;20234;-92
2022/03/24 00:16:03;;;;;;;57.43;38.97;;;5.40;69.90;;;;;;5058563;28;20170;-93
2022/03/24 00:18:32;;;;;;;67.10;40.17;;;5.30;69.80;;;;;;5059195;28;20210;-93
2022/03/24 00:21:02;;;;;;;58.47;38.90;;;5.30;69.80;;;;;;5058016;28;20202;-92
2022/03/24 00:23:28;;;;;;;67.07;43.23;;;5.30;69.70;;;;;;5058309;28;20202;-92
2022/03/24 00:25:54;;;;;;;64.93;39.60;;;5.30;69.60;;;;;;5058041;28;20185;-92
2022/03/24 00:28:20;;;;;;;67.60;42.30;;;5.20;69.60;;;;;;5058768;28;20179;-92
2022/03/24 00:30:45;;;;;;;63.27;40.77;;;5.20;69.70;;;;;;5057778;28;20188;-92
2022/03/24 00:33:12;;;;;;;60.37;40.13;;;5.20;69.80;;;;;;5058026;28;20193;-92
2022/03/24 00:35:37;;;;;;;65.13;40.17;;;5.10;70.00;;;;;;5057500;28;20290;-92
2022/03/24 00:38:05;;;;;;;63.17;41.67;;;5.10;70.00;;;;;;5056728;28;20190;-92
2022/03/24 00:40:32;;;;;;;66.00;39.33;;;5.00;70.50;;;;;;5057010;28;20222;-92
2022/03/24 00:42:59;;;;;;;59.77;37.77;;;5.00;70.80;;;;;;5057898;28;20221;-92
2022/03/24 00:45:25;;;;;;;60.57;38.47;;;5.00;70.90;;;;;;5057294;28;20181;-92
2022/03/24 00:47:51;;;;;;;60.37;37.53;;;5.00;70.80;;;;;;5057856;28;20184;-93
2022/03/24 00:50:17;;;;;;;59.50;36.77;;;4.90;70.80;;;;;;5057567;28;20198;-92
2022/03/24 00:52:45;;;;;;;60.07;38.73;;;4.90;70.70;;;;;;5057663;28;20231;-92
2022/03/24 00:55:13;;;;;;;57.70;38.53;;;4.80;70.80;;;;;;5057279;28;20181;-92
2022/03/24 00:57:43;;;;;;;64.33;42.40;;;4.80;71.00;;;;;;5057442;28;20529;-92
2022/03/24 01:00:18;;;;;;;59.73;39.13;;;4.80;71.40;;;;;;5057175;28;20205;-92
2022/03/24 01:02:46;;;;;;;72.00;42.27;;;4.80;71.60;;;;;;5057495;28;20204;-92
2022/03/24 01:05:15;;;;;;;71.43;42.27;;;4.80;71.90;;;;;;5056623;28;20192;-92
2022/03/24 01:07:45;;;;;;;71.33;43.73;;;4.70;72.00;;;;;;5057039;28;20188;-92
2022/03/24 01:10:14;;;;;;;66.17;41.33;;;4.70;72.60;;;;;;5055660;28;20244;-92
2022/03/24 01:12:40;;;;;;;64.73;40.37;;;4.70;72.60;;;;;;5054250;28;20184;-92
2022/03/24 01:15:10;;;;;;;64.20;39.20;;;4.60;72.60;;;;;;5053614;28;20220;-92
2022/03/24 01:17:37;;;;;;;61.47;39.93;;;4.60;72.70;;;;;;5053896;28;20189;-92
2022/03/24 01:20:04;;;;;;;64.70;40.10;;;4.50;72.60;;;;;;5054446;28;20182;-92
2022/03/24 01:22:30;;;;;;;67.73;40.07;;;4.50;72.60;;;;;;5053974;28;20201;-92
2022/03/24 01:24:59;;;;;;;66.53;40.50;;;4.50;72.70;;;;;;5053796;28;20220;-92
2022/03/24 01:27:26;;;;;;;63.77;40.30;;;4.50;72.50;;;;;;5051582;28;20176;-92
2022/03/24 01:29:56;;;;;;;67.67;41.17;;;4.50;72.50;;;;;;5052012;28;20272;-92
2022/03/24 01:32:23;;;;;;;65.47;41.67;;;4.40;72.50;;;;;;5050775;28;20167;-92
2022/03/24 01:34:50;;;;;;;66.70;43.00;;;4.40;72.50;;;;;;5049680;28;20259;-92
2022/03/24 01:37:16;;;;;;;69.47;43.20;;;4.30;72.70;;;;;;5050112;28;20650;-92
2022/03/24 01:39:42;;;;;;;69.80;44.07;;;4.30;73.00;;;;;;5050110;28;20174;-92
2022/03/24 01:42:08;;;;;;;69.27;41.40;;;4.30;73.00;;;;;;5049655;28;20263;-92
2022/03/24 01:44:34;;;;;;;73.37;42.67;;;4.30;73.00;;;;;;5050127;28;20176;-92
2022/03/24 01:47:07;;;;;;;58.00;38.83;;;4.30;73.00;;;;;;5047588;28;20188;-92
2022/03/24 01:49:39;;;;;;;70.00;43.83;;;4.30;72.90;;;;;;5047738;28;20203;-92
2022/03/24 01:52:13;;;;;;;73.57;44.33;;;4.30;73.00;;;;;;5044162;28;20219;-92
2022/03/24 01:54:44;;;;;;;68.97;41.27;;;4.20;73.50;;;;;;5044214;28;20615;-92
2022/03/24 01:57:11;;;;;;;63.47;42.10;;;4.20;73.40;;;;;;5045321;28;20169;-92
2022/03/24 01:59:39;;;;;;;66.57;40.07;;;4.20;73.30;;;;;;5045921;28;20180;-92
2022/03/24 02:02:05;;;;;;;68.90;41.77;;;4.20;73.40;;;;;;5045957;28;20670;-92
2022/03/24 02:04:35;;;;;;;65.40;40.50;;;4.20;73.40;;;;;;5046418;28;20231;-92
2022/03/24 02:07:05;;;;;;;78.77;45.20;;;4.10;73.40;;;;;;5047222;28;20164;-92
2022/03/24 02:09:31;;;;;;;65.47;43.07;;;4.10;73.60;;;;;;5046303;28;20203;-92
2022/03/24 02:11:57;;;;;;;70.27;43.67;;;4.00;74.00;;;;;;5046404;28;20200;-92
2022/03/24 02:14:22;;;;;;;71.53;44.37;;;4.00;74.40;;;;;;5046251;28;20191;-92
2022/03/24 02:16:49;;;;;;;64.80;41.10;;;4.00;74.40;;;;;;5047258;28;20340;-92
2022/03/24 02:19:21;;;;;;;71.53;41.30;;;4.00;74.30;;;;;;5046719;28;20186;-92
2022/03/24 02:21:48;;;;;;;66.63;41.37;;;4.00;74.50;;;;;;5047350;28;20287;-92
2022/03/24 02:24:15;;;;;;;65.03;41.53;;;3.90;74.70;;;;;;5047568;28;20227;-92
2022/03/24 02:26:45;;;;;;;63.93;40.23;;;3.80;74.70;;;;;;5047346;28;20236;-92
2022/03/24 02:29:12;;;;;;;77.30;42.20;;;3.90;74.60;;;;;;5045970;28;20152;-92
2022/03/24 02:31:40;;;;;;;74.97;42.47;;;3.80;74.50;;;;;;5046602;28;20273;-92
2022/03/24 02:36:53;;;;;;;68.43;42.47;;;3.70;74.60;;;;;;5064077;28;20170;-92
2022/03/24 02:39:19;;;;;;;71.83;42.20;;;3.80;74.40;;;;;;5045168;28;20176;-92
2022/03/24 02:41:51;;;;;;;64.73;40.90;;;3.80;74.40;;;;;;5044688;28;20200;-92
2022/03/24 02:44:17;;;;;;;62.97;40.57;;;3.70;74.30;;;;;;5040536;28;20187;-91
2022/03/24 02:46:54;;;;;;;64.43;41.50;;;3.70;74.20;;;;;;5045996;28;20176;-92
2022/03/24 02:49:24;;;;;;;64.53;40.03;;;3.60;74.50;;;;;;5045965;28;20627;-91
2022/03/24 02:51:54;;;;;;;67.03;41.17;;;3.60;74.90;;;;;;5044770;28;20546;-91
2022/03/24 02:54:22;;;;;;;65.60;43.53;;;3.50;75.70;;;;;;5046199;28;20255;-91
2022/03/24 02:56:48;;;;;;;61.77;41.03;;;3.50;76.20;;;;;;5045748;28;20267;-91
2022/03/24 02:59:15;;;;;;;76.90;42.83;;;3.40;76.60;;;;;;5044910;28;20179;-91
2022/03/24 03:01:45;;;;;;;73.07;45.10;;;3.40;77.00;;;;;;5045594;28;20199;-91
2022/03/24 03:04:14;;;;;;;65.17;40.87;;;3.30;77.10;;;;;;5044709;28;20244;-91
2022/03/24 03:06:40;;;;;;;66.90;41.17;;;3.30;77.30;;;;;;5045904;28;20172;-93
2022/03/24 03:09:06;;;;;;;67.00;41.57;;;3.30;77.20;;;;;;5047817;28;20175;-93
2022/03/24 03:11:33;;;;;;;65.37;39.93;;;3.30;77.10;;;;;;5047298;28;20196;-93
2022/03/24 03:13:59;;;;;;;61.00;39.07;;;3.30;77.30;;;;;;5046811;28;20180;-93
2022/03/24 03:16:26;;;;;;;68.57;40.63;;;3.30;77.10;;;;;;5046614;28;20188;-93
2022/03/24 03:18:53;;;;;;;76.10;44.17;;;3.30;76.80;;;;;;5046660;28;20164;-93
2022/03/24 03:21:19;;;;;;;72.10;42.93;;;3.30;76.90;;;;;;5046245;28;20555;-93
2022/03/24 03:23:45;;;;;;;71.87;46.33;;;3.30;77.50;;;;;;5046047;28;20209;-93
2022/03/24 03:26:12;;;;;;;78.23;45.87;;;3.30;77.30;;;;;;5046035;28;20183;-93
2022/03/24 03:28:38;;;;;;;67.90;42.70;;;3.20;77.00;;;;;;5045228;28;20241;-93
2022/03/24 03:31:05;;;;;;;72.60;43.97;;;3.20;76.90;;;;;;5044842;28;20206;-93
2022/03/24 03:33:32;;;;;;;67.80;41.13;;;3.20;76.80;;;;;;5045297;28;20710;-93
2022/03/24 03:35:59;;;;;;;68.77;38.90;;;3.20;76.90;;;;;;5045474;28;20184;-93
2022/03/24 03:38:26;;;;;;;61.10;37.67;;;3.20;76.90;;;;;;5046291;28;20275;-93
2022/03/24 03:40:52;;;;;;;64.30;39.67;;;3.10;77.00;;;;;;5045175;28;20199;-93
2022/03/24 03:43:18;;;;;;;72.37;41.20;;;3.00;77.60;;;;;;5045784;28;20380;-93
2022/03/24 03:45:44;;;;;;;78.47;45.53;;;2.80;78.20;;;;;;5046151;28;20270;-93
2022/03/24 03:48:10;;;;;;;80.30;48.67;;;2.70;79.10;;;;;;5045619;28;20180;-93
2022/03/24 03:50:37;;;;;;;88.90;49.83;;;2.60;80.00;;;;;;5044732;28;20289;-94
2022/03/24 03:53:03;;;;;;;86.60;48.93;;;2.70;80.80;;;;;;5044670;28;20214;-93
2022/03/24 03:55:29;;;;;;;81.10;49.60;;;2.80;81.30;;;;;;5044205;28;20190;-93
2022/03/24 03:57:55;;;;;;;79.83;47.47;;;2.60;81.50;;;;;;5044949;28;20176;-93
2022/03/24 04:03:06;;;;;;;91.90;51.00;;;2.30;82.40;;;;;;5062746;28;20203;-93
2022/03/24 04:05:33;;;;;;;99.53;53.30;;;2.30;82.80;;;;;;5044405;28;20644;-93
2022/03/24 04:08:00;;;;;;;75.33;46.07;;;2.40;82.80;;;;;;5043799;28;20180;-92
2022/03/24 04:10:27;;;;;;;78.10;47.23;;;2.40;82.80;;;;;;5043525;28;20581;-93
2022/03/24 04:12:54;;;;;;;79.13;47.10;;;2.50;82.80;;;;;;5043771;28;20187;-93
2022/03/24 04:15:20;;;;;;;85.87;47.90;;;2.50;82.40;;;;;;5042898;28;20183;-93
2022/03/24 04:17:45;;;;;;;73.27;45.73;;;2.60;82.40;;;;;;5042390;28;20196;-92
2022/03/24 04:20:13;;;;;;;75.57;43.77;;;2.60;82.20;;;;;;5044255;28;20197;-93
2022/03/24 04:22:39;;;;;;;77.47;45.00;;;2.60;82.20;;;;;;5043308;28;20633;-93
2022/03/24 04:25:05;;;;;;;71.23;42.40;;;2.60;81.60;;;;;;5043912;28;20258;-93
2022/03/24 04:27:31;;;;;;;70.30;42.70;;;2.60;81.40;;;;;;5042933;28;20180;-93
2022/03/24 04:29:56;;;;;;;66.70;41.87;;;2.60;81.40;;;;;;5042588;28;20178;-93
2022/03/24 04:32:22;;;;;;;78.47;42.90;;;2.60;81.20;;;;;;5042807;28;20176;-93
2022/03/24 04:34:48;;;;;;;69.97;43.30;;;2.50;80.80;;;;;;5044013;28;20229;-93
2022/03/24 04:37:15;;;;;;;68.53;41.63;;;2.50;80.70;;;;;;5043855;28;20197;-93
2022/03/24 04:39:41;;;;;;;69.80;40.53;;;2.50;80.60;;;;;;5043847;28;20267;-93
2022/03/24 04:42:08;;;;;;;69.43;41.90;;;2.50;80.50;;;;;;5042872;28;20707;-93
2022/03/24 04:44:34;;;;;;;70.67;41.03;;;2.50;80.40;;;;;;5043139;28;20208;-93
2022/03/24 04:47:00;;;;;;;63.87;40.97;;;2.50;80.20;;;;;;5042834;28;20243;-93
2022/03/24 04:49:26;;;;;;;68.80;40.80;;;2.50;80.10;;;;;;5042585;28;20222;-93
2022/03/24 04:51:53;;;;;;;67.13;40.17;;;2.50;79.90;;;;;;5047215;22;20228;-86
2022/03/24 04:54:19;;;;;;;69.00;40.37;;;2.50;79.60;;;;;;5017153;28;20307;-87
2022/03/24 04:56:44;;;;;;;71.87;40.77;;;2.50;79.40;;;;;;5034935;28;20201;-86
2022/03/24 04:59:10;;;;;;;64.77;41.37;;;2.50;79.30;;;;;;5034929;28;20233;-86
2022/03/24 05:01:35;;;;;;;72.00;43.13;;;2.40;79.00;;;;;;5016959;28;20636;-86
2022/03/24 05:04:01;;;;;;;75.40;43.20;;;2.30;80.00;;;;;;5034669;28;20211;-86
2022/03/24 05:06:26;;;;;;;89.70;43.73;;;2.30;81.10;;;;;;5017115;28;20169;-86
2022/03/24 05:08:52;;;;;;;80.97;45.70;;;2.20;81.60;;;;;;5034891;28;20228;-86
2022/03/24 05:11:18;;;;;;;83.60;45.80;;;2.10;82.60;;;;;;5034647;28;20216;-85
2022/03/24 05:13:45;;;;;;;77.17;43.10;;;1.90;82.90;;;;;;5017511;28;20184;-86
2022/03/24 05:16:11;;;;;;;82.87;45.93;;;1.70;83.30;;;;;;5034719;28;20206;-86
2022/03/24 05:18:38;;;;;;;83.00;44.87;;;1.60;83.70;;;;;;5016868;28;20207;-87
2022/03/24 05:21:04;;;;;;;78.90;43.07;;;1.80;83.90;;;;;;5016618;28;20206;-86
2022/03/24 05:23:30;;;;;;;79.13;43.40;;;1.80;83.70;;;;;;5016933;28;20290;-87
2022/03/24 05:25:56;;;;;;;77.13;43.93;;;1.80;83.70;;;;;;5034491;28;20165;-86
2022/03/24 05:28:22;;;;;;;73.50;43.97;;;1.90;83.70;;;;;;5016495;28;20238;-86
2022/03/24 05:30:48;;;;;;;73.97;40.40;;;1.90;83.70;;;;;;5015879;28;20570;-88
2022/03/24 05:33:14;;;;;;;70.63;40.87;;;1.90;83.60;;;;;;5016462;28;20181;-86
2022/03/24 05:35:40;;;;;;;69.07;41.53;;;2.00;83.70;;;;;;5034331;28;20172;-86
2022/03/24 05:38:05;;;;;;;69.03;41.77;;;2.00;83.60;;;;;;5034325;28;20208;-87
2022/03/24 05:40:32;;;;;;;61.93;39.83;;;2.10;83.50;;;;;;5034263;28;20216;-86
2022/03/24 05:42:57;;;;;;;74.00;40.43;;;2.10;83.30;;;;;;5016602;28;20212;-86
2022/03/24 05:45:23;;;;;;;67.27;38.90;;;2.20;83.30;;;;;;5034140;28;20176;-86
2022/03/24 05:47:49;;;;;;;67.30;40.47;;;2.20;83.20;;;;;;5016750;28;20680;-86
2022/03/24 05:50:14;;;;;;;70.03;39.13;;;2.30;83.00;;;;;;5016172;28;20638;-87
2022/03/24 05:52:41;;;;;;;68.57;41.03;;;2.30;82.80;;;;;;5016384;28;20218;-87
2022/03/24 05:55:08;;;;;;;65.30;41.37;;;2.30;82.70;;;;;;5034063;28;20228;-87
2022/03/24 05:57:34;;;;;;;65.83;39.73;;;2.30;82.50;;;;;;5034089;28;20197;-87
2022/03/24 06:00:01;;;;;;;70.97;39.00;;;2.30;82.40;;;;;;5033984;28;20178;-87
2022/03/24 06:02:27;;;;;;;68.60;39.07;;;2.30;82.00;;;;;;5033665;28;20190;-87
2022/03/24 06:04:53;;;;;;;67.93;41.73;;;2.40;81.90;;;;;;5016545;28;20274;-87
2022/03/24 06:07:19;;;;;;;66.93;39.90;;;2.50;81.80;;;;;;5016081;28;20177;-87
2022/03/24 06:09:45;;;;;;;68.13;38.57;;;2.50;81.60;;;;;;5034089;28;20176;-87
2022/03/24 06:12:12;;;;;;;70.57;42.93;;;2.60;81.60;;;;;;5033494;28;20193;-87
2022/03/24 06:14:40;;;;;;;63.33;41.07;;;2.60;81.60;;;;;;5033987;28;20182;-86
2022/03/24 06:17:05;;;;;;;63.70;39.57;;;2.60;81.60;;;;;;5016172;28;20191;-85
2022/03/24 06:19:35;;;;;;;65.03;39.87;;;2.70;81.30;;;;;;5033893;28;20176;-87
2022/03/24 06:22:04;;;;;;;64.20;38.87;;;2.70;81.20;;;;;;5015878;28;20203;-86
2022/03/24 06:24:33;;;;;;;61.47;38.57;;;2.80;81.20;;;;;;5033278;28;20192;-86
2022/03/24 06:26:58;;;;;;;80.43;41.37;;;2.80;81.30;;;;;;5033297;28;20243;-86
2022/03/24 06:29:24;;;;;;;75.53;44.63;;;2.90;81.60;;;;;;5015873;28;20659;-86
2022/03/24 06:31:50;;;;;;;70.30;43.77;;;3.00;82.50;;;;;;5033485;28;20192;-86
2022/03/24 06:34:16;;;;;;;82.93;49.67;;;3.20;83.10;;;;;;5015868;28;20222;-86
2022/03/24 06:36:42;;;;;;;77.10;46.83;;;3.20;83.30;;;;;;5032363;28;20184;-87
2022/03/24 06:39:08;;;;;;;78.27;47.97;;;3.30;83.60;;;;;;5015764;28;20179;-86
2022/03/24 06:41:34;;;;;;;82.43;48.50;;;3.30;83.90;;;;;;5015158;28;20623;-86
2022/03/24 06:44:00;;;;;;;81.87;49.17;;;3.40;83.80;;;;;;5033105;28;20736;-86
2022/03/24 06:46:27;;;;;;;84.53;50.90;;;3.60;84.10;;;;;;5033240;28;20175;-86
2022/03/24 06:48:54;;;;;;;84.07;50.67;;;3.60;84.40;;;;;;5033263;28;20169;-86
2022/03/24 06:51:19;;;;;;;84.27;49.83;;;3.70;84.50;;;;;;5033233;28;20205;-86
2022/03/24 06:53:45;;;;;;;87.97;50.50;;;3.80;84.40;;;;;;5015400;28;20234;-86
2022/03/24 06:56:11;;;;;;;102.23;52.73;;;3.80;84.70;;;;;;5015571;28;20265;-86
2022/03/24 06:58:36;;;;;;;80.53;50.17;;;4.00;85.00;;;;;;5015371;28;20215;-86
2022/03/24 07:01:03;;;;;;;92.90;52.70;;;4.30;85.10;;;;;;5015243;28;20199;-86
2022/03/24 07:03:29;;;;;;;93.07;53.57;;;4.30;85.10;;;;;;5015261;28;20227;-86
2022/03/24 07:05:54;;;;;;;97.97;56.80;;;4.50;85.10;;;;;;5015418;28;20231;-86
2022/03/24 07:08:20;;;;;;;89.03;54.60;;;4.60;84.90;;;;;;5015373;28;20191;-87
2022/03/24 07:10:46;;;;;;;90.97;54.10;;;4.60;84.60;;;;;;5033029;28;20696;-87
2022/03/24 07:13:12;;;;;;;93.70;52.97;;;4.80;84.90;;;;;;5015413;28;20176;-87
2022/03/24 07:15:37;;;;;;;91.10;53.37;;;5.00;85.20;;;;;;5015472;28;20263;-87
2022/03/24 07:18:03;;;;;;;88.53;54.93;;;5.10;85.20;;;;;;5015421;28;20184;-85
2022/03/24 07:20:28;;;;;;;86.20;52.90;;;5.20;85.00;;;;;;5033227;28;20174;-87
2022/03/24 07:22:57;;;;;;;95.30;55.93;;;5.30;84.80;;;;;;5033407;28;20686;-86
2022/03/24 07:25:24;;;;;;;91.03;55.37;;;5.50;84.70;;;;;;5033318;28;20639;-87
2022/03/24 07:27:50;;;;;;;85.00;53.07;;;5.60;84.50;;;;;;5032999;28;20195;-85
2022/03/24 07:30:15;;;;;;;87.50;51.77;;;5.80;84.10;;;;;;5032923;28;20208;-88
2022/03/24 07:32:43;;;;;;;93.40;55.40;;;5.90;84.00;;;;;;5015367;28;20182;-87
2022/03/24 07:35:10;;;;;;;89.80;55.57;;;6.10;83.80;;;;;;5032922;28;20197;-87
2022/03/24 07:37:35;;;;;;;91.77;52.70;;;6.30;83.20;;;;;;5015657;28;20694;-87
2022/03/24 07:40:03;;;;;;;84.07;53.07;;;6.50;82.50;;;;;;5015488;28;20185;-87
2022/03/24 07:42:28;;;;;;;88.37;51.73;;;6.60;82.10;;;;;;5033130;28;20191;-88
2022/03/24 07:44:54;;;;;;;83.07;53.27;;;6.80;81.30;;;;;;5015286;28;20678;-88
2022/03/24 07:47:20;;;;;;;79.10;50.17;;;7.00;81.10;;;;;;5015276;28;20187;-89
2022/03/24 07:49:46;;;;;;;81.43;50.30;;;7.00;80.30;;;;;;5015332;28;20184;-88
2022/03/24 07:52:14;;;;;;;80.83;51.63;;;7.20;80.00;;;;;;5032750;28;20231;-88
2022/03/24 07:54:57;;;;;;;74.60;50.17;;;7.40;79.50;;;;;;5036589;28;20588;-88
2022/03/24 07:57:30;;;;;;;73.00;47.73;;;7.50;78.40;;;;;;5036627;28;20165;-87
2022/03/24 07:59:59;;;;;;;75.13;48.67;;;7.70;77.90;;;;;;5018472;28;20635;-87
2022/03/24 08:02:25;;;;;;;78.17;47.20;;;7.90;77.30;;;;;;5036072;28;20192;-86
2022/03/24 08:04:52;;;;;;;69.53;46.50;;;8.00;76.70;;;;;;5019205;28;20176;-87
2022/03/24 08:07:18;;;;;;;81.00;48.73;;;8.10;76.40;;;;;;5036202;28;20188;-87
2022/03/24 08:09:44;;;;;;;80.57;46.40;;;8.30;75.90;;;;;;5018351;28;20188;-88
2022/03/24 08:12:09;;;;;;;72.37;48.37;;;8.40;75.70;;;;;;5035983;28;20192;-87
2022/03/24 08:14:35;;;;;;;69.90;46.07;;;8.50;75.40;;;;;;5019123;28;20633;-89
2022/03/24 08:17:01;;;;;;;76.33;45.53;;;8.60;75.30;;;;;;5019735;28;20177;-87
2022/03/24 08:19:26;;;;;;;68.17;44.47;;;8.60;74.40;;;;;;5019420;28;20552;-87
2022/03/24 08:21:52;;;;;;;77.60;47.87;;;8.60;73.60;;;;;;5037121;28;20208;-88
2022/03/24 08:24:17;;;;;;;64.30;45.93;;;8.70;72.30;;;;;;5018672;28;20205;-88
2022/03/24 08:26:43;;;;;;;61.60;43.00;;;8.80;71.80;;;;;;5037403;28;20184;-89
2022/03/24 08:29:09;;;;;;;62.53;42.50;;;8.80;71.90;;;;;;5035830;28;20169;-90
2022/03/24 08:31:35;;;;;;;62.60;42.90;;;8.90;71.00;;;;;;5017664;28;20283;-89
2022/03/24 08:34:01;;;;;;;63.63;43.93;;;9.00;71.20;;;;;;5018064;28;20187;-87
2022/03/24 08:36:27;;;;;;;61.20;42.30;;;9.10;71.10;;;;;;5017806;28;20185;-89
2022/03/24 08:38:52;;;;;;;70.70;42.40;;;9.20;70.60;;;;;;5017981;28;20634;-88
2022/03/24 08:41:18;;;;;;;65.93;42.60;;;9.30;69.40;;;;;;5033903;28;20288;-89
2022/03/24 08:43:44;;;;;;;60.40;43.20;;;9.30;68.80;;;;;;5018394;28;20295;-88
2022/03/24 08:46:10;;;;;;;64.30;39.63;;;9.50;69.40;;;;;;5017417;28;20635;-88
2022/03/24 08:48:36;;;;;;;61.63;41.67;;;9.60;68.40;;;;;;5035283;28;20177;-89
2022/03/24 08:51:02;;;;;;;64.83;40.60;;;9.70;67.70;;;;;;5035452;28;20224;-88
2022/03/24 08:53:28;;;;;;;65.60;42.50;;;9.80;66.10;;;;;;5018495;28;20212;-91
2022/03/24 08:55:55;;;;;;;70.63;45.57;;;9.90;66.80;;;;;;5019960;28;20646;-88
2022/03/24 08:58:21;;;;;;;74.53;48.47;;;10.10;66.90;;;;;;5018376;28;20268;-87
2022/03/24 09:00:47;;;;;;;59.93;41.93;;;10.30;66.00;;;;;;5035458;28;20216;-86
2022/03/24 09:03:13;;;;;;;56.43;39.33;;;10.30;64.30;;;;;;5035246;28;20245;-86
2022/03/24 09:05:39;;;;;;;61.87;39.67;;;10.40;64.20;;;;;;5017237;28;20272;-85
2022/03/24 09:08:04;;;;;;;63.00;40.77;;;10.50;64.90;;;;;;5017040;28;20662;-89
2022/03/24 09:10:30;;;;;;;55.67;38.13;;;10.60;64.90;;;;;;5034680;28;20279;-89
2022/03/24 09:12:56;;;;;;;54.83;36.07;;;10.60;64.50;;;;;;5035388;28;20238;-88
2022/03/24 09:15:22;;;;;;;51.30;34.63;;;10.70;62.50;;;;;;5033790;28;20647;-90
2022/03/24 09:17:48;;;;;;;54.17;35.40;;;10.90;59.30;;;;;;5035087;28;20188;-90
2022/03/24 09:20:18;;;;;;;52.27;35.07;;;11.00;60.50;;;;;;5034389;28;20231;-89
2022/03/24 09:22:45;;;;;;;56.40;35.80;;;11.10;59.20;;;;;;5036211;28;20242;-89
2022/03/24 09:25:15;;;;;;;52.80;35.53;;;11.20;56.70;;;;;;5017087;28;20207;-88
2022/03/24 09:27:42;;;;;;;51.23;36.03;;;11.20;56.00;;;;;;5018378;28;20530;-88
2022/03/24 09:30:09;;;;;;;61.10;35.63;;;11.40;57.00;;;;;;5017531;28;20173;-90
2022/03/24 09:32:35;;;;;;;54.50;35.90;;;11.50;56.60;;;;;;5018237;28;20231;-87
2022/03/24 09:35:03;;;;;;;53.87;35.03;;;11.70;54.80;;;;;;5017620;28;20180;-88
2022/03/24 09:37:29;;;;;;;49.03;34.57;;;11.80;55.00;;;;;;5016800;28;20180;-88
2022/03/24 09:39:55;;;;;;;51.27;34.53;;;12.00;55.40;;;;;;5017108;28;20716;-88
2022/03/24 09:42:21;;;;;;;54.03;35.23;;;12.10;54.20;;;;;;5034401;28;20193;-88
2022/03/24 09:44:47;;;;;;;51.03;35.73;;;12.20;54.10;;;;;;5016611;28;20201;-87
2022/03/24 09:47:13;;;;;;;55.70;36.67;;;12.50;53.30;;;;;;5034314;28;20263;-88
2022/03/24 09:49:43;;;;;;;50.30;34.63;;;12.60;51.80;;;;;;5016710;28;20657;-89
2022/03/24 09:52:13;;;;;;;56.23;35.67;;;12.60;50.90;;;;;;5016341;28;20208;-88
2022/03/24 09:54:42;;;;;;;49.23;33.57;;;12.80;50.30;;;;;;5016538;28;20275;-88
2022/03/24 09:57:09;;;;;;;48.73;34.47;;;12.80;48.20;;;;;;5016524;28;20185;-88
2022/03/24 09:59:35;;;;;;;50.90;33.80;;;12.90;47.40;;;;;;5016342;28;20188;-89
2022/03/24 10:02:03;;;;;;;53.10;36.00;;;13.00;48.50;;;;;;5016136;28;20205;-88
2022/03/24 10:04:53;;;;;;;49.77;32.97;;;13.00;47.00;;;;;;5016253;28;20232;-88
2022/03/24 10:07:23;;;;;;;49.63;35.93;;;13.20;44.50;;;;;;5034323;28;20300;-88
2022/03/24 10:09:49;;;;;;;53.73;34.40;;;13.30;44.20;;;;;;5016161;28;20176;-89
2022/03/24 10:12:22;;;;;;;49.00;31.57;;;13.30;45.80;;;;;;5034006;28;20222;-88
2022/03/24 10:15:11;;;;;;;48.37;34.63;;;13.40;44.60;;;;;;5015728;28;20572;-89
2022/03/24 10:17:38;;;;;;;54.03;34.63;;;13.40;44.70;;;;;;5016137;28;20546;-88
2022/03/24 10:20:15;;;;;;;50.60;32.90;;;13.60;46.70;;;;;;5033716;28;20181;-89
2022/03/24 10:22:53;;;;;;;52.50;32.87;;;13.70;44.10;;;;;;5016857;28;20200;-88
2022/03/24 10:25:21;;;;;;;50.20;31.57;;;13.90;42.90;;;;;;5032733;28;20258;-88
2022/03/24 10:27:51;;;;;;;49.00;32.63;;;13.80;42.60;;;;;;5033653;28;20196;-88
2022/03/24 10:30:17;;;;;;;45.07;33.30;;;14.10;43.70;;;;;;5016556;28;20469;-89
2022/03/24 10:32:55;;;;;;;52.03;34.27;;;14.20;44.20;;;;;;5015869;28;20172;-89
2022/03/24 10:35:20;;;;;;;48.63;34.03;;;14.20;43.80;;;;;;5015903;28;20172;-88
2022/03/24 10:37:52;;;;;;;53.37;32.73;;;14.20;42.90;;;;;;5034141;28;20173;-89
2022/03/24 10:40:18;;;;;;;48.10;31.10;;;14.00;42.50;;;;;;5033508;28;20177;-88
2022/03/24 10:42:43;;;;;;;51.80;32.47;;;14.20;43.40;;;;;;5015516;28;20169;-89
2022/03/24 10:45:20;;;;;;;49.67;34.90;;;14.40;43.20;;;;;;5015885;28;20180;-89
2022/03/24 10:47:50;;;;;;;46.63;32.83;;;14.70;43.50;;;;;;5015688;28;20164;-88
2022/03/24 10:50:32;;;;;;;49.33;33.17;;;14.90;43.90;;;;;;5031768;28;20180;-89
2022/03/24 10:53:04;;;;;;;49.43;33.03;;;15.00;42.90;;;;;;5057394;22;20782;-90
2022/03/24 10:55:45;;;;;;;46.60;33.17;;;14.90;42.80;;;;;;5016730;28;20574;-91
2022/03/24 10:58:28;;;;;;;50.27;34.17;;;14.90;42.50;;;;;;5015965;28;20165;-90
2022/03/24 11:00:57;;;;;;;46.73;31.73;;;15.10;40.30;;;;;;5015731;28;20537;-91
2022/03/24 11:03:23;;;;;;;55.33;34.53;;;15.00;42.20;;;;;;5033964;28;20287;-91
2022/03/24 11:05:49;;;;;;;57.57;34.57;;;14.80;42.70;;;;;;5035928;28;20670;-90
2022/03/24 11:08:17;;;;;;;59.70;35.03;;;15.00;43.30;;;;;;5035786;28;20172;-90
2022/03/24 11:10:47;;;;;;;51.97;34.17;;;15.20;41.60;;;;;;5036038;28;20175;-91
2022/03/24 11:13:40;;;;;;;50.27;34.90;;;15.60;42.40;;;;;;5036314;28;20231;-90
2022/03/24 11:16:08;;;;;;;52.37;34.90;;;15.60;42.70;;;;;;5035859;28;20164;-91
2022/03/24 11:18:33;;;;;;;50.30;34.03;;;16.10;43.30;;;;;;5036471;28;20179;-91
2022/03/24 11:21:04;;;;;;;55.95;33.63;;;16.10;43.40;;;;;;5036079;28;20176;-91
2022/03/24 11:23:35;;;;;;;52.27;32.20;;;15.70;42.50;;;;;;5035614;28;20222;-91
2022/03/24 11:26:04;;;;;;;52.23;32.13;;;15.80;42.40;;;;;;5035638;28;20192;-91
2022/03/24 11:28:34;;;;;;;48.70;33.27;;;15.80;42.70;;;;;;5038050;28;20172;-91
2022/03/24 11:31:09;;;;;;;48.25;30.75;;;16.20;41.60;;;;;;5040348;28;20590;-91
2022/03/24 11:33:42;;;;;;;45.60;29.67;;;16.20;41.90;;;;;;5039318;28;20172;-91
2022/03/24 11:36:08;;;;;;;46.50;30.55;;;15.80;41.20;;;;;;5039663;28;20176;-91
2022/03/24 11:38:35;;;;;;;47.55;31.85;;;16.10;43.50;;;;;;5039442;28;20214;-91
2022/03/24 11:41:04;;;;;;;41.55;28.45;;;16.40;41.30;;;;;;5039251;28;20182;-91
2022/03/24 11:43:31;;;;;;;49.45;28.67;;;16.70;41.40;;;;;;5039391;28;20203;-91
2022/03/24 11:46:02;;;;;;;47.35;26.70;;;16.60;42.80;;;;;;5039172;28;20262;-91
2022/03/24 11:48:36;;;;;;;46.25;29.27;;;16.20;40.50;;;;;;5039289;28;20167;-91
2022/03/24 11:51:16;;;;;;;49.45;27.95;;;16.40;41.30;;;;;;5039150;28;20167;-91
2022/03/24 11:53:43;;;;;;;43.80;30.25;;;16.80;42.30;;;;;;5039196;28;20172;-91
2022/03/24 11:56:09;;;;;;;44.17;29.48;;;16.80;42.20;;;;;;5039321;28;20180;-91
2022/03/24 11:58:37;;;;;;;46.30;30.88;;;17.10;41.20;;;;;;5039001;28;20186;-91
2022/03/24 12:01:17;;;;;;;47.67;29.95;;;17.20;41.20;;;;;;5056856;28;20172;-91
2022/03/24 12:03:56;;;;;;;46.90;31.00;;;17.00;41.50;;;;;;5039089;28;20196;-91
2022/03/24 12:06:40;;;;;;;50.90;31.10;;;17.20;41.00;;;;;;5039223;28;20267;-91
2022/03/24 12:09:06;;;;;;;48.35;30.13;;;17.60;40.30;;;;;;5039407;28;20168;-91
2022/03/24 12:11:32;;;;;;;41.50;31.83;;;17.50;41.10;;;;;;5038883;28;20286;-91
2022/03/24 12:13:58;;;;;;;50.60;31.45;;;17.80;39.60;;;;;;5039451;28;20206;-91
2022/03/24 12:16:26;;;;;;;48.35;32.30;;;17.40;40.20;;;;;;5038968;28;20175;-91
2022/03/24 12:18:52;;;;;;;49.95;31.63;;;17.60;37.40;;;;;;5039907;28;20188;-91
2022/03/24 12:21:29;;;;;;;53.60;33.63;;;17.40;37.60;;;;;;5056719;28;20172;-91
2022/03/24 12:24:08;;;;;;;41.85;30.27;;;17.20;38.40;;;;;;5038690;28;20570;-91
2022/03/24 12:26:48;;;;;;;49.08;30.23;;;17.20;40.60;;;;;;5038870;28;20175;-91
2022/03/24 12:29:21;;;;;;;44.90;30.92;;;17.20;39.60;;;;;;5038543;28;20161;-91
2022/03/24 12:32:27;;;;;;;52.65;30.58;;;17.60;39.90;;;;;;5038266;28;20204;-91
2022/03/24 12:34:53;;;;;;;47.20;31.70;;;17.70;37.90;;;;;;4976414;28;20189;-91
2022/03/24 12:37:30;;;;;;;42.92;32.22;;;17.40;38.30;;;;;;5024992;28;20203;-91
2022/03/24 12:40:05;;;;;;;50.75;32.40;;;17.40;40.90;;;;;;5037766;28;20593;-91
2022/03/24 12:42:51;;;;;;;57.78;34.67;;;17.50;38.30;;;;;;5071333;28;20210;-92